Time;durP1;ratioP1;P1;durP2;ratioP2;P2;SDS_P1;SDS_P2;PMS_P1;PMS_P2;Temp;Humidity;BMP_temperature;BMP_pressure;BME280_temperature;BME280_humidity;BME280_pressure;Samples;Min_cycle;Max_cycle;Signal;HPM_P1;HPM_P2
2024/03/16 00:01:47;;;;;;;1.85;0.70;;;;;;;;;;5083755;28;20067;-84
2024/03/16 00:04:12;;;;;;;0.73;0.40;;;;;;;;;;5099570;27;20040;-79
2024/03/16 00:06:37;;;;;;;0.35;0.35;;;;;;;;;;5091892;28;20037;-83
2024/03/16 00:09:04;;;;;;;0.50;0.40;;;;;;;;;;5084438;28;20097;-82
2024/03/16 00:11:31;;;;;;;2.72;1.15;;;;;;;;;;5067743;28;20031;-82
2024/03/16 00:13:57;;;;;;;0.85;0.55;;;;;;;;;;5089348;27;20134;-80
2024/03/16 00:16:22;;;;;;;1.25;0.57;;;;;;;;;;5098644;27;20109;-80
2024/03/16 00:18:48;;;;;;;0.80;0.40;;;;;;;;;;5105013;27;20027;-84
2024/03/16 00:21:13;;;;;;;1.75;0.73;;;;;;;;;;5100832;27;20035;-80
2024/03/16 00:23:39;;;;;;;2.25;0.40;;;;;;;;;;5094695;28;20042;-80
2024/03/16 00:26:04;;;;;;;1.13;0.70;;;;;;;;;;5067447;28;20043;-82
2024/03/16 00:28:30;;;;;;;2.47;0.50;;;;;;;;;;5095709;28;20047;-79
2024/03/16 00:30:55;;;;;;;0.47;0.47;;;;;;;;;;5086239;28;20247;-80
2024/03/16 00:33:20;;;;;;;2.72;0.60;;;;;;;;;;5083932;28;20045;-82
2024/03/16 00:35:46;;;;;;;0.80;0.40;;;;;;;;;;5066226;28;20502;-82
2024/03/16 00:38:11;;;;;;;1.55;0.60;;;;;;;;;;5089128;27;20054;-82
2024/03/16 00:40:37;;;;;;;1.75;0.75;;;;;;;;;;5095826;28;20031;-82
2024/03/16 00:43:04;;;;;;;0.55;0.40;;;;;;;;;;5077031;28;20028;-83
2024/03/16 00:45:29;;;;;;;0.47;0.47;;;;;;;;;;5092529;28;20042;-84
2024/03/16 00:47:56;;;;;;;1.55;0.60;;;;;;;;;;5076561;28;20122;-79
2024/03/16 00:50:21;;;;;;;2.53;0.80;;;;;;;;;;5089450;28;20033;-82
2024/03/16 00:52:47;;;;;;;0.75;0.50;;;;;;;;;;5076876;28;20095;-83
2024/03/16 00:55:12;;;;;;;1.30;0.50;;;;;;;;;;5105398;28;20114;-81
2024/03/16 00:57:37;;;;;;;0.63;0.40;;;;;;;;;;5099223;28;20061;-82
2024/03/16 01:00:03;;;;;;;0.43;0.38;;;;;;;;;;5087117;28;20050;-83
2024/03/16 01:02:29;;;;;;;0.57;0.30;;;;;;;;;;5082458;28;20043;-81
2024/03/16 01:04:56;;;;;;;1.00;0.38;;;;;;;;;;5096395;27;20043;-82
2024/03/16 01:07:21;;;;;;;0.30;0.30;;;;;;;;;;5055933;28;20094;-81
2024/03/16 01:09:48;;;;;;;0.45;0.45;;;;;;;;;;5095300;28;20036;-82
2024/03/16 01:12:13;;;;;;;1.25;0.45;;;;;;;;;;5096802;27;20046;-81
2024/03/16 01:14:40;;;;;;;0.30;0.30;;;;;;;;;;5100623;28;20043;-81
2024/03/16 01:17:06;;;;;;;0.95;0.40;;;;;;;;;;5097054;27;20040;-83
2024/03/16 01:19:31;;;;;;;1.27;0.45;;;;;;;;;;5081143;28;20039;-84
2024/03/16 01:21:57;;;;;;;0.22;0.22;;;;;;;;;;5100419;27;20039;-81
2024/03/16 01:24:22;;;;;;;0.82;0.30;;;;;;;;;;5037416;28;20036;-83
2024/03/16 01:26:47;;;;;;;1.27;0.63;;;;;;;;;;5086099;28;20119;-83
2024/03/16 01:29:15;;;;;;;0.60;0.40;;;;;;;;;;5073083;28;20094;-80
2024/03/16 01:31:41;;;;;;;3.25;0.30;;;;;;;;;;5089714;28;20088;-78
2024/03/16 01:34:06;;;;;;;0.40;0.32;;;;;;;;;;5069159;28;20039;-80
2024/03/16 01:36:32;;;;;;;0.88;0.50;;;;;;;;;;5078846;28;20043;-80
2024/03/16 01:38:57;;;;;;;1.30;0.40;;;;;;;;;;5073760;28;20023;-82
2024/03/16 01:41:23;;;;;;;1.65;0.30;;;;;;;;;;5089268;27;20032;-83
2024/03/16 01:43:48;;;;;;;0.55;0.40;;;;;;;;;;5095489;27;20035;-81
2024/03/16 01:46:15;;;;;;;0.82;0.40;;;;;;;;;;5098578;27;20043;-83
2024/03/16 01:48:42;;;;;;;0.43;0.43;;;;;;;;;;5096081;27;20701;-80
2024/03/16 01:51:08;;;;;;;0.30;0.30;;;;;;;;;;5094360;28;20032;-83
2024/03/16 01:53:33;;;;;;;0.73;0.40;;;;;;;;;;5085859;28;20697;-80
2024/03/16 01:55:59;;;;;;;0.95;0.60;;;;;;;;;;5092118;27;20036;-80
2024/03/16 01:58:24;;;;;;;0.98;0.40;;;;;;;;;;5082092;28;20033;-81
2024/03/16 02:00:49;;;;;;;0.85;0.25;;;;;;;;;;5065853;28;20035;-81
2024/03/16 02:03:15;;;;;;;1.77;0.30;;;;;;;;;;5079935;28;20043;-82
2024/03/16 02:05:41;;;;;;;0.40;0.40;;;;;;;;;;5063771;28;20185;-82
2024/03/16 02:08:07;;;;;;;0.35;0.35;;;;;;;;;;5089539;27;20098;-82
2024/03/16 02:10:33;;;;;;;0.90;0.50;;;;;;;;;;5091950;28;20032;-81
2024/03/16 02:12:58;;;;;;;0.85;0.40;;;;;;;;;;5080198;28;20036;-81
2024/03/16 02:15:24;;;;;;;1.58;0.68;;;;;;;;;;5088679;27;20082;-81
2024/03/16 02:17:50;;;;;;;0.43;0.40;;;;;;;;;;5081506;28;20535;-80
2024/03/16 02:20:15;;;;;;;1.95;0.57;;;;;;;;;;5081961;28;20078;-80
2024/03/16 02:22:44;;;;;;;0.55;0.55;;;;;;;;;;5076292;28;20054;-82
2024/03/16 02:25:10;;;;;;;0.95;0.77;;;;;;;;;;5101607;27;20122;-80
2024/03/16 02:27:36;;;;;;;2.05;0.60;;;;;;;;;;5096259;27;20488;-82
2024/03/16 02:30:02;;;;;;;0.40;0.40;;;;;;;;;;5100246;27;20077;-80
2024/03/16 02:32:28;;;;;;;0.68;0.50;;;;;;;;;;5090455;27;20036;-80
2024/03/16 02:34:53;;;;;;;0.50;0.50;;;;;;;;;;5102959;27;20038;-82
2024/03/16 02:37:19;;;;;;;0.68;0.50;;;;;;;;;;5096783;28;20050;-82
2024/03/16 02:39:44;;;;;;;1.80;0.50;;;;;;;;;;5099215;28;20368;-81
2024/03/16 02:42:10;;;;;;;0.30;0.20;;;;;;;;;;5118447;27;20044;-81
2024/03/16 02:44:35;;;;;;;1.25;0.50;;;;;;;;;;5117790;27;20039;-80
2024/03/16 02:47:00;;;;;;;0.47;0.45;;;;;;;;;;5092272;28;20055;-80
2024/03/16 02:49:26;;;;;;;0.68;0.50;;;;;;;;;;5075537;28;20063;-82
2024/03/16 02:51:53;;;;;;;0.75;0.45;;;;;;;;;;5089241;28;20125;-82
2024/03/16 02:54:18;;;;;;;0.60;0.55;;;;;;;;;;5105291;28;20089;-83
2024/03/16 02:56:44;;;;;;;0.98;0.82;;;;;;;;;;5107110;28;20031;-81
2024/03/16 02:59:10;;;;;;;0.30;0.30;;;;;;;;;;5090316;28;20049;-83
2024/03/16 03:01:37;;;;;;;0.40;0.40;;;;;;;;;;5090905;28;20043;-82
2024/03/16 03:04:05;;;;;;;0.93;0.40;;;;;;;;;;5082239;28;20057;-83
2024/03/16 03:06:30;;;;;;;1.73;0.63;;;;;;;;;;5078252;28;20053;-82
2024/03/16 03:08:56;;;;;;;0.40;0.32;;;;;;;;;;5096431;27;20123;-83
2024/03/16 03:11:21;;;;;;;0.70;0.40;;;;;;;;;;5101592;28;20566;-82
2024/03/16 03:13:50;;;;;;;1.30;0.47;;;;;;;;;;5100775;27;20038;-83
2024/03/16 03:16:19;;;;;;;0.30;0.30;;;;;;;;;;5106564;27;20036;-82
2024/03/16 03:18:46;;;;;;;1.40;0.30;;;;;;;;;;5104244;27;20036;-81
2024/03/16 03:21:12;;;;;;;1.45;0.63;;;;;;;;;;5097608;28;20039;-83
2024/03/16 03:23:37;;;;;;;0.60;0.60;;;;;;;;;;5065772;28;20099;-83
2024/03/16 03:26:03;;;;;;;0.40;0.40;;;;;;;;;;5077795;28;20575;-82
2024/03/16 03:28:28;;;;;;;0.40;0.40;;;;;;;;;;5077030;28;20060;-83
2024/03/16 03:30:54;;;;;;;0.60;0.60;;;;;;;;;;5096042;27;20119;-80
2024/03/16 03:33:19;;;;;;;0.50;0.45;;;;;;;;;;5073713;28;20032;-81
2024/03/16 03:35:45;;;;;;;0.45;0.40;;;;;;;;;;5066161;28;20057;-82
2024/03/16 03:38:10;;;;;;;0.40;0.40;;;;;;;;;;5067762;28;21804;-81
2024/03/16 03:40:35;;;;;;;1.60;0.68;;;;;;;;;;5073213;28;20036;-82
2024/03/16 03:43:01;;;;;;;0.40;0.40;;;;;;;;;;5081512;28;20974;-80
2024/03/16 03:45:49;;;;;;;0.40;0.40;;;;;;;;;;5089519;27;20047;-82
2024/03/16 03:50:54;;;;;;;0.70;0.43;;;;;;;;;;5091484;28;20373;-82
2024/03/16 03:53:20;;;;;;;0.50;0.50;;;;;;;;;;5073103;28;20032;-79
2024/03/16 03:55:46;;;;;;;0.68;0.60;;;;;;;;;;5082793;28;20043;-82
2024/03/16 03:58:11;;;;;;;0.40;0.40;;;;;;;;;;5098959;27;20113;-80
2024/03/16 04:00:37;;;;;;;0.40;0.40;;;;;;;;;;5109280;27;20035;-82
2024/03/16 04:03:06;;;;;;;1.33;0.47;;;;;;;;;;5104546;27;20039;-84
2024/03/16 04:05:35;;;;;;;0.50;0.50;;;;;;;;;;5073251;28;20043;-82
2024/03/16 04:08:00;;;;;;;0.55;0.50;;;;;;;;;;5068045;28;20028;-82
2024/03/16 04:10:26;;;;;;;1.38;0.40;;;;;;;;;;5069589;28;20039;-80
2024/03/16 04:12:51;;;;;;;0.52;0.52;;;;;;;;;;5065089;28;20126;-85
2024/03/16 04:15:17;;;;;;;0.45;0.45;;;;;;;;;;5082142;28;20089;-79
2024/03/16 04:17:43;;;;;;;0.30;0.30;;;;;;;;;;5081658;28;20040;-82
2024/03/16 04:20:12;;;;;;;1.13;0.70;;;;;;;;;;5090691;28;20129;-86
2024/03/16 04:22:38;;;;;;;1.00;0.88;;;;;;;;;;5104079;27;20035;-81
2024/03/16 04:25:03;;;;;;;3.95;0.70;;;;;;;;;;5100630;27;20046;-80
2024/03/16 04:27:30;;;;;;;0.50;0.50;;;;;;;;;;5100008;27;20039;-85
2024/03/16 04:29:55;;;;;;;0.70;0.70;;;;;;;;;;5099147;28;20069;-85
2024/03/16 04:32:24;;;;;;;1.17;0.90;;;;;;;;;;5101331;28;20028;-81
2024/03/16 04:34:49;;;;;;;2.42;1.00;;;;;;;;;;5077009;28;20096;-83
2024/03/16 04:37:15;;;;;;;0.30;0.30;;;;;;;;;;5098115;28;20063;-82
2024/03/16 04:39:43;;;;;;;1.40;1.15;;;;;;;;;;5099513;27;20113;-83
2024/03/16 04:42:09;;;;;;;3.53;1.13;;;;;;;;;;5089049;28;20138;-81
2024/03/16 04:44:35;;;;;;;1.55;0.88;;;;;;;;;;5082653;28;20082;-84
2024/03/16 04:47:00;;;;;;;2.03;1.20;;;;;;;;;;5068496;28;20043;-83
2024/03/16 04:49:25;;;;;;;1.67;1.25;;;;;;;;;;5106099;27;20258;-80
2024/03/16 04:51:51;;;;;;;1.48;1.00;;;;;;;;;;5090067;28;20049;-84
2024/03/16 04:54:16;;;;;;;2.63;1.33;;;;;;;;;;5073439;28;20035;-81
2024/03/16 04:56:42;;;;;;;1.67;1.08;;;;;;;;;;5080905;28;20104;-82
2024/03/16 04:59:07;;;;;;;3.28;1.60;;;;;;;;;;5069616;28;20127;-83
2024/03/16 05:01:32;;;;;;;3.50;1.30;;;;;;;;;;5097867;28;20718;-84
2024/03/16 05:03:58;;;;;;;2.25;1.40;;;;;;;;;;5086226;28;20067;-82
2024/03/16 05:06:23;;;;;;;2.97;1.77;;;;;;;;;;5094146;27;20034;-83
2024/03/16 05:08:49;;;;;;;2.53;1.48;;;;;;;;;;5106474;27;20040;-82
2024/03/16 05:11:14;;;;;;;3.65;1.60;;;;;;;;;;5070957;28;20044;-85
2024/03/16 05:13:39;;;;;;;1.58;0.60;;;;;;;;;;5078787;28;20043;-80
2024/03/16 05:16:08;;;;;;;1.58;1.48;;;;;;;;;;5084315;28;20123;-81
2024/03/16 05:18:33;;;;;;;1.27;0.77;;;;;;;;;;5087702;28;20515;-82
2024/03/16 05:20:59;;;;;;;1.75;0.52;;;;;;;;;;5086989;28;20063;-81
2024/03/16 05:23:24;;;;;;;1.90;1.60;;;;;;;;;;5083635;28;20112;-81
2024/03/16 05:25:50;;;;;;;1.40;1.30;;;;;;;;;;5090739;28;20122;-81
2024/03/16 05:28:16;;;;;;;0.98;0.80;;;;;;;;;;5096430;28;20514;-82
2024/03/16 05:30:42;;;;;;;1.15;0.95;;;;;;;;;;5087515;28;20648;-82
2024/03/16 05:33:08;;;;;;;1.60;1.50;;;;;;;;;;5095977;27;20036;-81
2024/03/16 05:35:33;;;;;;;2.08;1.52;;;;;;;;;;5094389;27;20100;-85
2024/03/16 05:37:58;;;;;;;5.00;1.70;;;;;;;;;;5095038;28;20032;-84
2024/03/16 05:40:24;;;;;;;1.17;0.90;;;;;;;;;;5077824;28;20129;-82
2024/03/16 05:42:50;;;;;;;1.23;0.80;;;;;;;;;;5094317;27;20045;-82
2024/03/16 05:45:15;;;;;;;1.70;1.33;;;;;;;;;;5093328;27;20488;-82
2024/03/16 05:47:41;;;;;;;2.67;1.83;;;;;;;;;;5070743;28;20570;-81
2024/03/16 05:50:06;;;;;;;2.25;1.13;;;;;;;;;;5097542;27;20047;-82
2024/03/16 05:52:33;;;;;;;2.33;1.08;;;;;;;;;;5084991;27;20036;-83
2024/03/16 05:54:59;;;;;;;1.95;1.02;;;;;;;;;;5063998;28;20125;-81
2024/03/16 05:57:24;;;;;;;2.25;1.25;;;;;;;;;;5098542;27;20151;-80
2024/03/16 05:59:50;;;;;;;2.45;1.30;;;;;;;;;;5088206;27;20048;-82
2024/03/16 06:02:15;;;;;;;1.02;1.00;;;;;;;;;;5097494;27;20047;-82
2024/03/16 06:04:41;;;;;;;1.35;1.08;;;;;;;;;;5066429;28;20040;-82
2024/03/16 06:07:06;;;;;;;1.60;1.20;;;;;;;;;;5082057;28;20048;-80
2024/03/16 06:09:31;;;;;;;2.90;1.30;;;;;;;;;;5078456;27;20032;-80
2024/03/16 06:11:57;;;;;;;2.00;1.02;;;;;;;;;;5102032;27;20035;-82
2024/03/16 06:14:22;;;;;;;4.45;1.40;;;;;;;;;;5080100;28;20107;-81
2024/03/16 06:16:47;;;;;;;1.42;1.25;;;;;;;;;;5103582;28;20106;-80
2024/03/16 06:19:13;;;;;;;2.00;1.40;;;;;;;;;;5077298;28;20480;-81
2024/03/16 06:21:38;;;;;;;1.40;1.10;;;;;;;;;;5080620;28;20035;-81
2024/03/16 06:24:04;;;;;;;2.47;1.27;;;;;;;;;;5091779;27;20035;-80
2024/03/16 06:26:36;;;;;;;2.40;0.93;;;;;;;;;;5099036;27;20142;-80
2024/03/16 06:29:08;;;;;;;;;;;;;;;;;;5088252;27;20040;-80
2024/03/16 06:31:38;;;;;;;3.53;1.15;;;;;;;;;;5109848;27;19919;-82
2024/03/16 06:34:06;;;;;;;3.38;1.05;;;;;;;;;;5108538;27;20084;-82
2024/03/16 06:36:33;;;;;;;2.50;1.10;;;;;;;;;;5081516;28;20046;-80
2024/03/16 06:38:59;;;;;;;4.15;1.48;;;;;;;;;;5082805;28;20050;-82
2024/03/16 06:41:24;;;;;;;3.15;1.15;;;;;;;;;;5072182;28;20041;-82
2024/03/16 06:43:50;;;;;;;2.70;0.80;;;;;;;;;;5082647;28;20028;-79
2024/03/16 06:46:15;;;;;;;5.63;1.10;;;;;;;;;;5083895;28;20060;-80
2024/03/16 06:48:41;;;;;;;1.27;1.00;;;;;;;;;;5085395;28;20043;-80
2024/03/16 06:51:06;;;;;;;1.13;1.00;;;;;;;;;;5084558;28;20059;-80
2024/03/16 06:53:32;;;;;;;1.38;0.70;;;;;;;;;;5093453;28;20044;-79
2024/03/16 06:55:57;;;;;;;1.58;1.02;;;;;;;;;;5100281;28;20039;-81
2024/03/16 06:58:24;;;;;;;3.13;1.08;;;;;;;;;;5091207;27;20518;-81
2024/03/16 07:00:49;;;;;;;1.10;1.00;;;;;;;;;;5102899;28;20047;-80
2024/03/16 07:03:15;;;;;;;1.33;1.00;;;;;;;;;;5102084;27;20044;-81
2024/03/16 07:05:41;;;;;;;1.08;0.60;;;;;;;;;;5102461;27;20624;-80
2024/03/16 07:08:12;;;;;;;2.72;1.20;;;;;;;;;;5100244;27;20541;-80
2024/03/16 07:10:38;;;;;;;2.60;1.20;;;;;;;;;;5103468;28;20111;-81
2024/03/16 07:13:03;;;;;;;5.18;1.25;;;;;;;;;;5081489;28;20300;-82
2024/03/16 07:15:32;;;;;;;1.10;0.50;;;;;;;;;;5089962;28;20048;-82
2024/03/16 07:17:57;;;;;;;2.25;1.17;;;;;;;;;;5083944;28;20082;-81
2024/03/16 07:20:23;;;;;;;2.38;0.98;;;;;;;;;;5093214;27;20035;-80
2024/03/16 07:22:48;;;;;;;1.88;0.90;;;;;;;;;;5099503;27;20032;-81
2024/03/16 07:25:14;;;;;;;1.33;0.50;;;;;;;;;;5078474;28;20068;-81
2024/03/16 07:27:40;;;;;;;2.42;1.10;;;;;;;;;;5091222;27;20051;-79
2024/03/16 07:30:06;;;;;;;1.15;0.82;;;;;;;;;;5085813;27;20142;-81
2024/03/16 07:32:32;;;;;;;1.40;0.60;;;;;;;;;;5053104;28;20098;-81
2024/03/16 07:34:58;;;;;;;1.45;0.73;;;;;;;;;;5075273;28;20031;-81
2024/03/16 07:37:24;;;;;;;1.77;0.40;;;;;;;;;;5085186;28;20058;-80
2024/03/16 07:39:49;;;;;;;1.10;0.90;;;;;;;;;;5089536;27;20028;-81
2024/03/16 07:42:14;;;;;;;0.50;0.50;;;;;;;;;;5065312;28;20055;-81
2024/03/16 07:44:40;;;;;;;0.45;0.43;;;;;;;;;;5083184;28;20040;-81
2024/03/16 07:47:06;;;;;;;0.77;0.60;;;;;;;;;;5103349;27;20264;-82
2024/03/16 07:49:31;;;;;;;0.30;0.30;;;;;;;;;;5080325;27;20029;-82
2024/03/16 07:51:57;;;;;;;0.75;0.60;;;;;;;;;;5099877;27;20035;-82
2024/03/16 07:54:23;;;;;;;1.67;0.80;;;;;;;;;;5101531;27;20558;-83
2024/03/16 07:56:48;;;;;;;0.80;0.80;;;;;;;;;;5097769;27;20119;-83
2024/03/16 07:59:14;;;;;;;0.38;0.38;;;;;;;;;;5090756;28;20047;-82
2024/03/16 08:01:40;;;;;;;0.63;0.50;;;;;;;;;;5084034;28;20043;-81
2024/03/16 08:04:05;;;;;;;1.45;0.80;;;;;;;;;;5099559;28;20039;-83
2024/03/16 08:06:31;;;;;;;0.90;0.70;;;;;;;;;;5084522;27;20134;-82
2024/03/16 08:08:56;;;;;;;0.82;0.70;;;;;;;;;;5092066;27;20062;-83
2024/03/16 08:11:22;;;;;;;0.40;0.40;;;;;;;;;;5106596;28;20038;-81
2024/03/16 08:13:47;;;;;;;2.28;1.85;;;;;;;;;;5087142;28;20280;-85
2024/03/16 08:16:13;;;;;;;1.13;0.55;;;;;;;;;;5106259;28;20040;-87
2024/03/16 08:18:38;;;;;;;0.70;0.50;;;;;;;;;;5098859;28;20065;-85
2024/03/16 08:21:04;;;;;;;0.70;0.50;;;;;;;;;;5092758;28;20032;-85
2024/03/16 08:23:29;;;;;;;1.45;0.65;;;;;;;;;;5074628;28;20028;-82
2024/03/16 08:25:58;;;;;;;0.82;0.70;;;;;;;;;;5079719;28;20039;-86
2024/03/16 08:28:23;;;;;;;2.15;1.13;;;;;;;;;;5105734;27;20035;-87
2024/03/16 08:30:48;;;;;;;1.35;0.90;;;;;;;;;;5105978;28;20035;-87
2024/03/16 08:33:14;;;;;;;2.13;0.95;;;;;;;;;;5093152;28;20100;-87
2024/03/16 08:35:39;;;;;;;2.55;1.40;;;;;;;;;;5096680;27;20042;-83
2024/03/16 08:38:05;;;;;;;3.03;1.20;;;;;;;;;;5100402;28;20062;-83
2024/03/16 08:40:30;;;;;;;0.90;0.70;;;;;;;;;;5095654;27;20047;-82
2024/03/16 08:42:57;;;;;;;2.42;0.90;;;;;;;;;;5114898;27;20072;-82
2024/03/16 08:45:23;;;;;;;1.17;0.80;;;;;;;;;;5098982;28;20042;-82
2024/03/16 08:47:49;;;;;;;0.85;0.70;;;;;;;;;;5094228;28;20036;-81
2024/03/16 08:50:14;;;;;;;0.40;0.40;;;;;;;;;;5101763;27;20907;-84
2024/03/16 08:52:40;;;;;;;1.17;0.73;;;;;;;;;;5091476;28;20044;-83
2024/03/16 08:55:05;;;;;;;2.47;1.17;;;;;;;;;;5084181;28;20040;-81
2024/03/16 08:57:31;;;;;;;1.85;0.90;;;;;;;;;;5073442;27;20054;-82
2024/03/16 08:59:57;;;;;;;1.38;0.82;;;;;;;;;;5097652;28;20043;-84
2024/03/16 09:02:24;;;;;;;2.30;0.90;;;;;;;;;;5102053;28;20036;-82
2024/03/16 09:04:55;;;;;;;0.85;0.50;;;;;;;;;;5101529;27;20091;-81
2024/03/16 09:07:21;;;;;;;1.65;0.82;;;;;;;;;;5080570;28;20054;-83
2024/03/16 09:09:46;;;;;;;2.45;0.60;;;;;;;;;;5107837;27;20043;-83
2024/03/16 09:12:12;;;;;;;0.80;0.80;;;;;;;;;;5100345;28;20031;-81
2024/03/16 09:14:37;;;;;;;1.30;0.70;;;;;;;;;;5084920;27;20048;-80
2024/03/16 09:17:04;;;;;;;1.52;0.75;;;;;;;;;;5099217;27;20567;-82
2024/03/16 09:19:31;;;;;;;0.70;0.52;;;;;;;;;;5100178;27;20039;-83
2024/03/16 09:21:56;;;;;;;0.90;0.50;;;;;;;;;;5091823;27;20058;-81
2024/03/16 09:24:22;;;;;;;1.67;0.80;;;;;;;;;;5077472;28;20036;-81
2024/03/16 09:26:49;;;;;;;3.28;0.88;;;;;;;;;;5085620;27;20055;-80
2024/03/16 09:29:15;;;;;;;1.90;0.95;;;;;;;;;;5069866;28;20036;-81
2024/03/16 09:31:40;;;;;;;0.47;0.47;;;;;;;;;;5070906;28;20052;-83
2024/03/16 09:34:06;;;;;;;1.00;0.60;;;;;;;;;;5093405;27;20069;-81
2024/03/16 09:36:32;;;;;;;0.70;0.55;;;;;;;;;;5082205;28;20089;-82
2024/03/16 09:38:58;;;;;;;1.45;0.88;;;;;;;;;;5074765;28;20020;-82
2024/03/16 09:41:23;;;;;;;1.17;0.50;;;;;;;;;;5111451;27;20035;-85
2024/03/16 09:43:49;;;;;;;0.65;0.65;;;;;;;;;;5105479;27;20509;-83
2024/03/16 09:46:15;;;;;;;1.13;0.80;;;;;;;;;;5081741;28;20059;-81
2024/03/16 09:48:41;;;;;;;0.88;0.68;;;;;;;;;;5096183;27;20033;-80
2024/03/16 09:51:13;;;;;;;0.93;0.60;;;;;;;;;;5103223;28;20051;-81
2024/03/16 09:53:39;;;;;;;1.02;0.77;;;;;;;;;;5105255;27;20030;-81
2024/03/16 09:56:09;;;;;;;0.80;0.80;;;;;;;;;;5106067;27;20036;-80
2024/03/16 09:58:36;;;;;;;0.68;0.68;;;;;;;;;;5092393;28;20028;-80
2024/03/16 10:01:03;;;;;;;1.65;0.93;;;;;;;;;;5100410;27;20046;-80
2024/03/16 10:03:32;;;;;;;2.25;0.80;;;;;;;;;;5092893;27;20078;-80
2024/03/16 10:05:59;;;;;;;1.60;0.70;;;;;;;;;;5072813;28;20047;-80
2024/03/16 10:08:25;;;;;;;2.70;0.90;;;;;;;;;;5103206;27;20057;-80
2024/03/16 10:11:07;;;;;;;1.02;0.90;;;;;;;;;;5090286;28;20060;-80
2024/03/16 10:13:32;;;;;;;1.67;1.00;;;;;;;;;;5107581;27;20118;-81
2024/03/16 10:15:59;;;;;;;0.65;0.65;;;;;;;;;;5104019;27;20078;-81
2024/03/16 10:18:24;;;;;;;0.90;0.90;;;;;;;;;;5084879;28;20321;-81
2024/03/16 10:20:50;;;;;;;2.80;1.88;;;;;;;;;;5096373;28;20046;-82
2024/03/16 10:23:15;;;;;;;1.20;1.10;;;;;;;;;;5104090;27;20028;-82
2024/03/16 10:25:47;;;;;;;0.77;0.77;;;;;;;;;;5100379;28;20756;-81
2024/03/16 10:28:15;;;;;;;1.95;0.70;;;;;;;;;;5082603;28;20464;-80
2024/03/16 10:30:45;;;;;;;0.75;0.73;;;;;;;;;;5098463;27;20040;-81
2024/03/16 10:33:11;;;;;;;1.63;0.60;;;;;;;;;;5088468;27;20041;-81
2024/03/16 10:35:39;;;;;;;1.25;0.90;;;;;;;;;;5097611;27;20447;-83
2024/03/16 10:38:11;;;;;;;0.68;0.68;;;;;;;;;;5087545;28;20073;-81
2024/03/16 10:40:38;;;;;;;1.52;0.50;;;;;;;;;;5075166;28;20036;-81
2024/03/16 10:43:04;;;;;;;0.70;0.70;;;;;;;;;;5087799;28;20040;-80
2024/03/16 10:45:32;;;;;;;1.98;0.90;;;;;;;;;;5091880;27;20063;-80
2024/03/16 10:48:01;;;;;;;1.25;0.80;;;;;;;;;;5091486;27;20063;-80
2024/03/16 10:50:29;;;;;;;2.30;1.20;;;;;;;;;;5094239;28;20622;-81
2024/03/16 10:52:55;;;;;;;0.68;0.68;;;;;;;;;;5086058;28;20036;-81
2024/03/16 10:55:23;;;;;;;0.82;0.68;;;;;;;;;;5093158;28;20036;-81
2024/03/16 10:57:53;;;;;;;0.57;0.57;;;;;;;;;;5089147;28;20039;-81
2024/03/16 11:00:35;;;;;;;0.70;0.63;;;;;;;;;;5091911;27;20062;-80
2024/03/16 11:03:12;;;;;;;0.73;0.70;;;;;;;;;;5078871;28;20048;-80
2024/03/16 11:05:46;;;;;;;1.08;1.00;;;;;;;;;;5085792;27;20071;-79
2024/03/16 11:08:14;;;;;;;1.00;0.68;;;;;;;;;;5098720;27;20153;-80
2024/03/16 11:10:42;;;;;;;3.40;0.98;;;;;;;;;;5100453;28;20091;-80
2024/03/16 11:13:19;;;;;;;0.70;0.68;;;;;;;;;;5087611;28;20044;-80
2024/03/16 11:15:45;;;;;;;3.75;1.00;;;;;;;;;;5066530;28;20135;-79
2024/03/16 11:18:19;;;;;;;1.33;1.02;;;;;;;;;;5076752;28;20079;-80
2024/03/16 11:20:50;;;;;;;1.10;1.00;;;;;;;;;;5084596;28;20082;-80
2024/03/16 11:23:36;;;;;;;2.55;2.00;;;;;;;;;;5088331;27;20040;-79
2024/03/16 11:26:27;;;;;;;1.05;0.85;;;;;;;;;;5080570;28;20512;-79
2024/03/16 11:29:03;;;;;;;1.23;1.13;;;;;;;;;;5063329;28;20040;-79
2024/03/16 11:31:36;;;;;;;3.17;2.10;;;;;;;;;;5083824;28;20040;-79
2024/03/16 11:34:03;;;;;;;3.17;1.98;;;;;;;;;;5084084;28;20062;-80
2024/03/16 11:36:29;;;;;;;3.53;2.58;;;;;;;;;;5076514;27;20471;-79
2024/03/16 11:38:54;;;;;;;6.07;4.72;;;;;;;;;;5085451;27;20123;-80
2024/03/16 11:41:20;;;;;;;1.90;1.80;;;;;;;;;;5081091;27;20135;-79
2024/03/16 11:43:47;;;;;;;1.45;1.33;;;;;;;;;;5079042;28;20041;-78
2024/03/16 11:46:15;;;;;;;1.88;1.67;;;;;;;;;;5068828;28;20031;-80
2024/03/16 11:48:41;;;;;;;0.57;0.57;;;;;;;;;;5089416;28;20031;-80
2024/03/16 11:51:12;;;;;;;1.45;1.35;;;;;;;;;;5067858;28;20047;-80
2024/03/16 11:53:39;;;;;;;1.02;0.80;;;;;;;;;;5080392;28;20077;-79
2024/03/16 11:56:07;;;;;;;1.20;1.02;;;;;;;;;;5083054;28;20603;-80
2024/03/16 11:58:34;;;;;;;0.45;0.45;;;;;;;;;;5077851;27;20031;-79
2024/03/16 12:01:00;;;;;;;1.30;1.20;;;;;;;;;;5076928;28;20813;-79
2024/03/16 12:03:26;;;;;;;0.57;0.57;;;;;;;;;;5080468;28;20036;-79
2024/03/16 12:05:52;;;;;;;2.55;1.58;;;;;;;;;;5074913;28;20099;-80
2024/03/16 12:08:17;;;;;;;3.00;0.77;;;;;;;;;;5074134;28;20040;-79
2024/03/16 12:10:44;;;;;;;0.50;0.50;;;;;;;;;;5076336;28;20055;-79
2024/03/16 12:13:10;;;;;;;0.65;0.65;;;;;;;;;;5073317;28;20489;-79
2024/03/16 12:15:35;;;;;;;0.88;0.88;;;;;;;;;;5066075;28;20074;-79
2024/03/16 12:18:02;;;;;;;0.73;0.65;;;;;;;;;;5084232;27;20065;-79
2024/03/16 12:20:27;;;;;;;0.60;0.60;;;;;;;;;;5069036;28;20064;-79
2024/03/16 12:22:54;;;;;;;0.65;0.55;;;;;;;;;;5056360;28;20225;-79
2024/03/16 12:25:25;;;;;;;1.33;0.80;;;;;;;;;;5074431;28;20441;-79
2024/03/16 12:27:52;;;;;;;0.30;0.30;;;;;;;;;;5069716;28;20573;-79
2024/03/16 12:30:18;;;;;;;1.05;0.50;;;;;;;;;;5064045;28;20453;-79
2024/03/16 12:32:43;;;;;;;0.50;0.50;;;;;;;;;;5049489;27;20047;-79
2024/03/16 12:35:09;;;;;;;1.65;0.60;;;;;;;;;;5074782;28;20035;-79
2024/03/16 12:37:38;;;;;;;0.95;0.60;;;;;;;;;;5082158;28;20051;-79
2024/03/16 12:40:08;;;;;;;0.60;0.60;;;;;;;;;;5073610;28;20165;-79
2024/03/16 12:42:33;;;;;;;0.70;0.28;;;;;;;;;;5074714;28;20040;-79
2024/03/16 12:44:59;;;;;;;2.05;0.60;;;;;;;;;;5077902;27;20066;-80
2024/03/16 12:47:26;;;;;;;0.40;0.40;;;;;;;;;;5051365;28;20473;-79
2024/03/16 12:49:52;;;;;;;0.35;0.35;;;;;;;;;;5082522;28;20168;-79
2024/03/16 12:52:18;;;;;;;2.28;0.75;;;;;;;;;;5083791;28;20040;-80
2024/03/16 12:54:43;;;;;;;1.27;0.85;;;;;;;;;;5075004;28;20043;-79
2024/03/16 12:57:09;;;;;;;1.05;0.45;;;;;;;;;;5069941;28;20612;-79
2024/03/16 12:59:37;;;;;;;2.40;0.80;;;;;;;;;;5072437;28;20032;-79
2024/03/16 13:02:02;;;;;;;1.48;0.88;;;;;;;;;;5074007;28;20663;-79
2024/03/16 13:04:28;;;;;;;0.50;0.50;;;;;;;;;;5080733;27;20050;-79
2024/03/16 13:06:53;;;;;;;0.82;0.80;;;;;;;;;;5086027;28;20462;-79
2024/03/16 13:09:19;;;;;;;1.65;0.75;;;;;;;;;;5091453;27;20052;-79
2024/03/16 13:11:46;;;;;;;2.15;0.70;;;;;;;;;;5093789;27;20469;-80
2024/03/16 13:14:11;;;;;;;0.35;0.35;;;;;;;;;;5088383;28;20040;-79
2024/03/16 13:16:37;;;;;;;1.70;1.20;;;;;;;;;;5078078;28;20135;-79
2024/03/16 13:19:03;;;;;;;1.08;0.90;;;;;;;;;;5092662;27;20042;-79
2024/03/16 13:21:29;;;;;;;1.77;0.90;;;;;;;;;;5093820;27;20096;-79
2024/03/16 13:23:55;;;;;;;2.58;0.55;;;;;;;;;;5100221;27;20036;-79
2024/03/16 13:26:20;;;;;;;0.47;0.40;;;;;;;;;;5104599;27;20518;-79
2024/03/16 13:28:46;;;;;;;3.70;1.35;;;;;;;;;;5081710;28;20028;-79
2024/03/16 13:31:13;;;;;;;1.63;1.25;;;;;;;;;;5092954;27;20044;-79
2024/03/16 13:33:38;;;;;;;0.80;0.75;;;;;;;;;;5088551;28;20043;-79
2024/03/16 13:36:04;;;;;;;2.20;1.50;;;;;;;;;;5093820;27;20039;-78
2024/03/16 13:38:30;;;;;;;1.95;1.02;;;;;;;;;;5077981;27;20621;-78
2024/03/16 13:40:55;;;;;;;3.40;2.03;;;;;;;;;;5095648;28;20070;-79
2024/03/16 13:43:22;;;;;;;2.40;1.00;;;;;;;;;;5101161;27;20116;-79
2024/03/16 13:45:48;;;;;;;2.45;1.15;;;;;;;;;;5093759;27;20048;-79
2024/03/16 13:48:13;;;;;;;1.13;0.85;;;;;;;;;;5095801;27;20086;-79
2024/03/16 13:50:39;;;;;;;5.05;1.02;;;;;;;;;;5105722;27;20032;-78
2024/03/16 13:53:07;;;;;;;3.15;1.23;;;;;;;;;;5099554;27;20031;-78
2024/03/16 13:55:33;;;;;;;3.30;1.40;;;;;;;;;;5075074;27;20035;-78
2024/03/16 13:57:59;;;;;;;1.52;1.02;;;;;;;;;;5087143;27;20061;-78
2024/03/16 14:00:26;;;;;;;5.72;2.13;;;;;;;;;;5096191;27;20043;-79
2024/03/16 14:02:55;;;;;;;5.57;1.73;;;;;;;;;;5093761;27;20031;-79
2024/03/16 14:05:21;;;;;;;5.95;1.83;;;;;;;;;;5068168;28;20429;-78
2024/03/16 14:07:50;;;;;;;2.65;1.23;;;;;;;;;;5071658;28;20081;-78
2024/03/16 14:10:16;;;;;;;3.60;1.08;;;;;;;;;;5092956;27;20114;-78
2024/03/16 14:12:48;;;;;;;1.95;1.10;;;;;;;;;;5081798;27;20040;-78
2024/03/16 14:15:14;;;;;;;2.10;1.00;;;;;;;;;;5068353;27;20046;-78
2024/03/16 14:17:41;;;;;;;3.85;1.10;;;;;;;;;;5079031;28;20040;-78
2024/03/16 14:20:16;;;;;;;2.20;0.93;;;;;;;;;;5083124;28;20344;-79
2024/03/16 14:22:45;;;;;;;3.85;1.55;;;;;;;;;;5064636;28;20028;-79
2024/03/16 14:25:12;;;;;;;0.60;0.60;;;;;;;;;;5077277;28;20074;-78
2024/03/16 14:27:38;;;;;;;0.93;0.60;;;;;;;;;;5066069;28;20037;-79
2024/03/16 14:30:08;;;;;;;2.08;1.30;;;;;;;;;;5062628;28;20508;-78
2024/03/16 14:32:35;;;;;;;4.03;1.90;;;;;;;;;;5090619;27;20040;-80
2024/03/16 14:35:00;;;;;;;2.72;2.17;;;;;;;;;;5082922;28;20032;-80
2024/03/16 14:37:25;;;;;;;5.47;1.88;;;;;;;;;;5076732;28;20031;-79
2024/03/16 14:39:51;;;;;;;6.20;3.75;;;;;;;;;;5079129;27;20024;-80
2024/03/16 14:42:16;;;;;;;3.78;2.47;;;;;;;;;;5090118;27;20048;-78